Seabulk Arctic — WCY7054 — position and weather

sailwx.info

Track history (hours):
 
Tides and Currents Weather Stations Pressure Air Temp Water Temp Dewpoint Dewpoint Depression Visibility Wind Speed Wind Dir Waves Ship Positions

Seabulk Arctic

Owner: LIGHTSHIP TANKERS IV LLC, FORT LAUDERDALE, FL. More information available from US FCC via Universal Licensing System and Coast Guard Vessel Documentation Center.

Last reported at 2016-Dec-02 12:34 UTC. Time now 2016-Dec-02 18:13 UTC.
Position N 29°24' W 093°13'.

Type: Tanker. MMSI: 366826000.

Date/timePositionNaut miles runAvg speedWind from/ knotsBaromVisibWave heightAir tempDewpointWater temp
2016-Dec-02 12:34N 29°24' W 093°13'1010.1
2016-Dec-02 11:32N 29°34' W 093°16'10 9.9
2016-Dec-02 10:34N 29°43' W 093°20'9 8.5
2016-Dec-02 09:34N 29°51' W 093°21'8 7.9
2016-Dec-02 08:34N 29°59' W 093°20'7 6.6
2016-Dec-02 07:33N 30°06' W 093°20'5 4.6
2016-Dec-02 06:33N 30°10' W 093°19'0 0.2
2016-Dec-02 05:32N 30°11' W 093°19'0 0.0
2016-Dec-02 04:32N 30°11' W 093°19'0 0.0
2016-Dec-02 03:32N 30°11' W 093°19'0 0.0
2016-Dec-02 02:32N 30°11' W 093°19'0 0.0
2016-Dec-02 01:32N 30°11' W 093°19'0 0.0
2016-Dec-02 00:32N 30°11' W 093°19'0 0.0
2016-Dec-01 23:32N 30°11' W 093°19'0 0.0
2016-Dec-01 22:32N 30°11' W 093°19'0 0.0
2016-Dec-01 21:32N 30°11' W 093°19'0 0.0
2016-Dec-01 20:32N 30°11' W 093°19'0 0.0
2016-Dec-01 19:32N 30°11' W 093°19'0 0.0
2016-Dec-01 18:32N 30°11' W 093°19'0 0.0
2016-Dec-01 17:32N 30°11' W 093°19'0 0.0
2016-Dec-01 16:32N 30°11' W 093°19'0 0.0
2016-Dec-01 15:32N 30°11' W 093°19'0 0.0
2016-Dec-01 14:32N 30°11' W 093°19'0 0.0
2016-Dec-01 13:32N 30°11' W 093°19'0 0.0
2016-Dec-01 12:32N 30°11' W 093°19'0 0.0
2016-Dec-01 11:32N 30°11' W 093°19'0 0.0
2016-Dec-01 10:32N 30°11' W 093°19'0 0.0
2016-Dec-01 09:32N 30°11' W 093°19'0 0.0
2016-Dec-01 08:32N 30°11' W 093°19'0 0.0
2016-Dec-01 07:29N 30°11' W 093°19'0 0.0
2016-Dec-01 06:32N 30°11' W 093°19'0 0.0
2016-Dec-01 05:32N 30°11' W 093°19'0 0.0
2016-Dec-01 04:32N 30°11' W 093°19'0 0.0
2016-Dec-01 03:32N 30°11' W 093°19'0 0.0
2016-Dec-01 02:32N 30°11' W 093°19'0 0.0
2016-Dec-01 01:32N 30°11' W 093°19'0 0.0
2016-Dec-01 00:32N 30°11' W 093°19'0 0.0
2016-Nov-30 23:32N 30°11' W 093°19'0 0.0
2016-Nov-30 22:32N 30°11' W 093°19'0 0.0
2016-Nov-30 21:32N 30°11' W 093°19'0 0.0
2016-Nov-30 20:32N 30°11' W 093°19'0 0.0
2016-Nov-30 19:32N 30°11' W 093°19'0 0.0
2016-Nov-30 18:32N 30°11' W 093°19'0 0.0
2016-Nov-30 17:32N 30°11' W 093°19'0 0.0
2016-Nov-30 16:29N 30°11' W 093°19'0 0.0
2016-Nov-30 15:32N 30°11' W 093°19'0 0.0
2016-Nov-30 14:32N 30°11' W 093°19'0 0.0
2016-Nov-30 13:32N 30°11' W 093°19'1 0.7
2016-Nov-30 12:33N 30°11' W 093°18'0 0.1
2016-Nov-30 11:32N 30°11' W 093°18'0 0.0
2016-Nov-30 10:32N 30°11' W 093°18'0 0.0
2016-Nov-30 09:32N 30°11' W 093°18'0 0.0
2016-Nov-30 08:32N 30°11' W 093°18'0 0.0
2016-Nov-30 07:32N 30°11' W 093°18'0 0.0
2016-Nov-30 06:32N 30°11' W 093°18'0 0.1
2016-Nov-30 05:32N 30°11' W 093°18'0 0.0
2016-Nov-30 04:32N 30°11' W 093°18'0 0.0
2016-Nov-30 03:32N 30°11' W 093°18'0 0.0
2016-Nov-30 02:32N 30°11' W 093°18'0 0.0
2016-Nov-30 01:32N 30°11' W 093°18'0 0.1
2016-Nov-30 00:33N 30°11' W 093°19'6 5.7
2016-Nov-29 23:33N 30°05' W 093°20'8 8.4
2016-Nov-29 22:33N 29°57' W 093°20'10 9.7
2016-Nov-29 21:33N 29°47' W 093°21'182 8.1
2016-Nov-28 23:00N 26°54' W 092°18'13611.4 180 / 301005.010.8
2016-Nov-28 11:00N 25°24' W 090°24'15613.0 120 / 131011.210.8
2016-Nov-27 23:00N 24°48' W 087°36'41712.4 090 / 91015.010.8
2016-Nov-26 13:25N 25°20' W 079°57'910.2
2016-Nov-26 12:33N 25°28' W 079°54'1010.2
2016-Nov-26 11:33N 25°38' W 079°54'1010.1
2016-Nov-26 10:33N 25°48' W 079°52'1010.1
2016-Nov-26 09:33N 25°58' W 079°49'9 9.4
2016-Nov-26 08:33N 26°04' W 079°42'1111.3
2016-Nov-26 07:33N 26°10' W 079°31'  
Track history (hours):
 
Tides and Currents Weather Stations Pressure Air Temp Water Temp Dewpoint Dewpoint Depression Visibility Wind Speed Wind Dir Waves Ship Positions

Seabulk Arctic

Owner: LIGHTSHIP TANKERS IV LLC, FORT LAUDERDALE, FL. More information available from US FCC via Universal Licensing System and Coast Guard Vessel Documentation Center.

Last reported at 2016-Dec-02 12:34 UTC. Time now 2016-Dec-02 18:13 UTC.
Position N 29°24' W 093°13'.

Type: Tanker. MMSI: 366826000.

Date/timePositionNaut miles runAvg speedWind from/ knotsBaromVisibWave heightAir tempDewpointWater temp
2016-Dec-02 12:34N 29°24' W 093°13'1010.1
2016-Dec-02 11:32N 29°34' W 093°16'10 9.9
2016-Dec-02 10:34N 29°43' W 093°20'9 8.5
2016-Dec-02 09:34N 29°51' W 093°21'8 7.9
2016-Dec-02 08:34N 29°59' W 093°20'7 6.6
2016-Dec-02 07:33N 30°06' W 093°20'5 4.6
2016-Dec-02 06:33N 30°10' W 093°19'0 0.2
2016-Dec-02 05:32N 30°11' W 093°19'0 0.0
2016-Dec-02 04:32N 30°11' W 093°19'0 0.0
2016-Dec-02 03:32N 30°11' W 093°19'0 0.0
2016-Dec-02 02:32N 30°11' W 093°19'0 0.0
2016-Dec-02 01:32N 30°11' W 093°19'0 0.0
2016-Dec-02 00:32N 30°11' W 093°19'0 0.0
2016-Dec-01 23:32N 30°11' W 093°19'0 0.0
2016-Dec-01 22:32N 30°11' W 093°19'0 0.0
2016-Dec-01 21:32N 30°11' W 093°19'0 0.0
2016-Dec-01 20:32N 30°11' W 093°19'0 0.0
2016-Dec-01 19:32N 30°11' W 093°19'0 0.0
2016-Dec-01 18:32N 30°11' W 093°19'0 0.0
2016-Dec-01 17:32N 30°11' W 093°19'0 0.0
2016-Dec-01 16:32N 30°11' W 093°19'0 0.0
2016-Dec-01 15:32N 30°11' W 093°19'0 0.0
2016-Dec-01 14:32N 30°11' W 093°19'0 0.0
2016-Dec-01 13:32N 30°11' W 093°19'0 0.0
2016-Dec-01 12:32N 30°11' W 093°19'0 0.0
2016-Dec-01 11:32N 30°11' W 093°19'0 0.0
2016-Dec-01 10:32N 30°11' W 093°19'0 0.0
2016-Dec-01 09:32N 30°11' W 093°19'0 0.0
2016-Dec-01 08:32N 30°11' W 093°19'0 0.0
2016-Dec-01 07:29N 30°11' W 093°19'0 0.0
2016-Dec-01 06:32N 30°11' W 093°19'0 0.0
2016-Dec-01 05:32N 30°11' W 093°19'0 0.0
2016-Dec-01 04:32N 30°11' W 093°19'0 0.0
2016-Dec-01 03:32N 30°11' W 093°19'0 0.0
2016-Dec-01 02:32N 30°11' W 093°19'0 0.0
2016-Dec-01 01:32N 30°11' W 093°19'0 0.0
2016-Dec-01 00:32N 30°11' W 093°19'0 0.0
2016-Nov-30 23:32N 30°11' W 093°19'0 0.0
2016-Nov-30 22:32N 30°11' W 093°19'0 0.0
2016-Nov-30 21:32N 30°11' W 093°19'0 0.0
2016-Nov-30 20:32N 30°11' W 093°19'0 0.0
2016-Nov-30 19:32N 30°11' W 093°19'0 0.0
2016-Nov-30 18:32N 30°11' W 093°19'0 0.0
2016-Nov-30 17:32N 30°11' W 093°19'0 0.0
2016-Nov-30 16:29N 30°11' W 093°19'0 0.0
2016-Nov-30 15:32N 30°11' W 093°19'0 0.0
2016-Nov-30 14:32N 30°11' W 093°19'0 0.0
2016-Nov-30 13:32N 30°11' W 093°19'1 0.7
2016-Nov-30 12:33N 30°11' W 093°18'0 0.1
2016-Nov-30 11:32N 30°11' W 093°18'0 0.0
2016-Nov-30 10:32N 30°11' W 093°18'0 0.0
2016-Nov-30 09:32N 30°11' W 093°18'0 0.0
2016-Nov-30 08:32N 30°11' W 093°18'0 0.0
2016-Nov-30 07:32N 30°11' W 093°18'0 0.0
2016-Nov-30 06:32N 30°11' W 093°18'0 0.1
2016-Nov-30 05:32N 30°11' W 093°18'0 0.0
2016-Nov-30 04:32N 30°11' W 093°18'0 0.0
2016-Nov-30 03:32N 30°11' W 093°18'0 0.0
2016-Nov-30 02:32N 30°11' W 093°18'0 0.0
2016-Nov-30 01:32N 30°11' W 093°18'0 0.1
2016-Nov-30 00:33N 30°11' W 093°19'6 5.7
2016-Nov-29 23:33N 30°05' W 093°20'8 8.4
2016-Nov-29 22:33N 29°57' W 093°20'10 9.7
2016-Nov-29 21:33N 29°47' W 093°21'182 8.1
2016-Nov-28 23:00N 26°54' W 092°18'13611.4 180 / 301005.010.8
2016-Nov-28 11:00N 25°24' W 090°24'15613.0 120 / 131011.210.8
2016-Nov-27 23:00N 24°48' W 087°36'41712.4 090 / 91015.010.8
2016-Nov-26 13:25N 25°20' W 079°57'910.2
2016-Nov-26 12:33N 25°28' W 079°54'1010.2
2016-Nov-26 11:33N 25°38' W 079°54'1010.1
2016-Nov-26 10:33N 25°48' W 079°52'1010.1
2016-Nov-26 09:33N 25°58' W 079°49'9 9.4
2016-Nov-26 08:33N 26°04' W 079°42'1111.3
2016-Nov-26 07:33N 26°10' W 079°31'  

Dump ship's entire track history